Terminal Aerodrome Forecast
Issued by NWS

Home | Current Version | Previous Version | Text Only | Print | Product List | Glossary On
Versions: 1 2 3 4 5 6 7 8 9 10 11 12 13 14 15
000
FTUS42 KTBW 281135
TAFPGD
TAF
KPGD 281135Z 2812/2912 07006KT P6SM FEW250
     FM281400 08011KT P6SM FEW035 SCT250
     FM281700 08012G18KT P6SM SCT050 SCT250
     FM282100 08012G18KT P6SM SCT060 SCT250
     FM290100 08008KT P6SM SCT250=

USA.gov is the U.S. government's official web portal to all federal, state and local government web resources and services.